首页
METAR-TAF:

METAR-TAF

机场 :

Mecklenburg-Brunswick Regional Airport

South Hill, 弗吉尼亚州, 美国

纬度: 36-41-19N, 经度: 078-03-15W, 海拔: 135米

当前天气观测

该预报发布于28分钟前的00:35 UTC
风速7节,风向北转东北
温度 6°C
湿度 100%
气压 1026 hPa
能見度: 8.0公里
阴天层高于300英尺

METAR: KAVC 130035Z AUTO 02007KT 5SM OVC003 06/06 A3030 RMK AO2 P0010 T00590059

时间: 20:03 (01:03 UTC)


TAF: 丢失

超过4000个机场的气象观测和天气预报(METAR&TAF报告)。

可查询的气象台以黄色和红色小点在地图上表示。

将鼠标移到小点上方,可查看气象台名称。

然后点击查看天气观测和预报。

如需切换地图:点击带黑十字的绿色按钮放大地图;点击带横线的绿色按钮缩小地图;或者点击绿色箭头查看邻近地区的地图。


METAR-TAF: